createdAt,value
2023-04-25T00:01:34.628Z,6.68
2023-04-25T00:04:07.002Z,15.95
2023-04-25T00:06:37.151Z,8.15
2023-04-25T00:09:08.418Z,9.60
2023-04-25T00:11:37.703Z,7.50
2023-04-25T00:14:07.658Z,8.00
2023-04-25T00:16:38.775Z,6.10
2023-04-25T00:19:08.683Z,9.93
2023-04-25T00:21:38.598Z,8.52
2023-04-25T00:24:07.350Z,9.75
2023-04-25T00:26:38.115Z,6.07
2023-04-25T00:29:06.558Z,7.55
2023-04-25T00:31:35.074Z,10.07
2023-04-25T00:34:03.625Z,12.20
2023-04-25T00:36:33.432Z,8.10
2023-04-25T00:39:02.425Z,10.00
2023-04-25T00:41:31.192Z,11.32
2023-04-25T00:43:59.894Z,13.98
2023-04-25T00:46:28.779Z,8.88
2023-04-25T00:48:57.629Z,10.85
2023-04-25T00:51:27.608Z,9.48
2023-04-25T00:53:57.834Z,11.68
2023-04-25T00:56:26.449Z,11.63
2023-04-25T00:58:57.426Z,11.13
2023-04-25T01:01:25.874Z,10.05
2023-04-25T01:03:57.147Z,10.93
2023-04-25T01:06:26.175Z,12.25
2023-04-25T01:09:11.436Z,12.90
2023-04-25T01:12:02.154Z,7.82
2023-04-25T01:14:44.446Z,12.18
2023-04-25T01:17:33.201Z,11.18
2023-04-25T01:20:11.928Z,12.02
2023-04-25T01:22:48.512Z,10.80
2023-04-25T01:25:22.611Z,13.30
2023-04-25T01:27:55.431Z,12.60
2023-04-25T01:30:31.243Z,12.95
2023-04-25T01:33:26.527Z,11.93
2023-04-25T01:36:11.623Z,11.85
2023-04-25T01:39:03.293Z,9.75
2023-04-25T01:41:40.055Z,8.43
2023-04-25T01:44:13.521Z,10.20
2023-04-25T01:47:05.161Z,12.73
2023-04-25T01:50:19.716Z,10.45
2023-04-25T01:53:02.381Z,12.40
2023-04-25T01:55:46.833Z,14.38
2023-04-25T01:58:38.818Z,8.05
2023-04-25T02:01:56.703Z,10.05
2023-04-25T02:04:54.645Z,10.90
2023-04-25T02:10:36.051Z,10.85
2023-04-25T02:13:34.205Z,15.50
2023-04-25T02:17:18.395Z,12.07
2023-04-25T02:19:51.378Z,14.23
2023-04-25T02:25:38.428Z,12.00
2023-04-25T02:28:20.734Z,12.18
2023-04-25T02:31:20.170Z,13.25
2023-04-25T02:34:06.923Z,11.55
2023-04-25T02:36:44.114Z,13.85
2023-04-25T02:39:17.687Z,13.82
2023-04-25T02:42:19.299Z,11.77
2023-04-25T02:45:20.909Z,10.27
2023-04-25T02:48:30.072Z,18.73
2023-04-25T02:51:28.026Z,13.95
2023-04-25T02:54:20.258Z,13.30
2023-04-25T02:57:17.238Z,12.30
2023-04-25T03:00:19.387Z,17.40
2023-04-25T03:06:12.525Z,8.98
2023-04-25T03:08:50.862Z,14.98
2023-04-25T03:12:00.728Z,11.45
2023-04-25T03:14:53.112Z,16.98
2023-04-25T03:17:40.711Z,16.83
2023-04-25T03:20:38.040Z,11.93
2023-04-25T03:23:24.254Z,20.50
2023-04-25T03:26:40.845Z,22.63
2023-04-25T03:29:29.213Z,15.77
2023-04-25T03:32:14.757Z,13.75
2023-04-25T03:34:59.851Z,15.30
2023-04-25T03:37:34.533Z,16.40
2023-04-25T03:40:15.456Z,13.20
2023-04-25T03:43:45.595Z,16.58
2023-04-25T03:46:25.417Z,14.73
2023-04-25T03:48:54.087Z,15.88
2023-04-25T03:51:27.255Z,14.05
2023-04-25T03:53:59.375Z,13.85
2023-04-25T03:56:52.391Z,17.70
2023-04-25T03:59:23.416Z,16.15
2023-04-25T04:01:52.485Z,14.52
2023-04-25T04:04:21.364Z,22.85
2023-04-25T04:06:50.088Z,16.17
2023-04-25T04:09:28.511Z,17.38
2023-04-25T04:11:59.567Z,16.88
2023-04-25T04:14:27.990Z,17.38
2023-04-25T04:16:58.686Z,18.52
2023-04-25T04:19:27.671Z,15.45
2023-04-25T04:24:40.607Z,18.67
2023-04-25T04:27:13.637Z,16.17
2023-04-25T04:29:55.863Z,13.77
2023-04-25T04:32:34.451Z,16.40
2023-04-25T04:35:04.594Z,12.82
2023-04-25T04:37:33.663Z,14.18
2023-04-25T04:40:06.796Z,16.30
2023-04-25T04:42:47.578Z,17.08
2023-04-25T04:45:23.679Z,15.52
2023-04-25T04:48:18.069Z,14.50
2023-04-25T04:51:04.855Z,13.93
2023-04-25T04:53:44.981Z,14.80
2023-04-25T04:56:39.154Z,17.05
2023-04-25T04:59:20.594Z,15.30
2023-04-25T05:02:07.463Z,10.48
2023-04-25T05:04:54.255Z,12.85
2023-04-25T05:07:28.568Z,16.98
2023-04-25T05:10:22.240Z,16.33
2023-04-25T05:13:12.825Z,14.40
2023-04-25T05:16:05.945Z,11.52
2023-04-25T05:18:49.553Z,16.20
2023-04-25T05:21:44.504Z,15.48
2023-04-25T05:24:35.569Z,17.02
2023-04-25T05:27:33.135Z,14.63
2023-04-25T05:30:13.764Z,17.42
2023-04-25T05:33:12.724Z,11.20
2023-04-25T05:35:41.269Z,19.20
2023-04-25T05:38:09.787Z,16.23
2023-04-25T05:40:56.852Z,13.82
2023-04-25T05:43:57.072Z,15.07
2023-04-25T05:46:36.875Z,13.27
2023-04-25T05:49:19.770Z,16.73
2023-04-25T05:52:04.480Z,19.95
2023-04-25T05:54:44.154Z,17.70
2023-04-25T05:57:21.582Z,16.50
2023-04-25T05:59:50.067Z,14.48
2023-04-25T06:02:19.090Z,15.05
2023-04-25T06:04:49.353Z,18.55
2023-04-25T06:07:17.904Z,17.35
2023-04-25T06:09:46.586Z,15.57
2023-04-25T06:12:14.996Z,14.05
2023-04-25T06:14:43.605Z,14.93
2023-04-25T06:17:12.075Z,17.02
2023-04-25T06:19:40.834Z,17.10
2023-04-25T06:22:10.859Z,17.08
2023-04-25T06:24:42.427Z,18.15
2023-04-25T06:27:10.961Z,22.25
2023-04-25T06:29:39.514Z,15.93
2023-04-25T06:32:08.029Z,19.80
2023-04-25T06:34:36.888Z,18.80
2023-04-25T06:37:05.669Z,14.13
2023-04-25T06:39:41.091Z,18.55
2023-04-25T06:42:09.873Z,14.15
2023-04-25T06:45:00.236Z,17.83
2023-04-25T06:47:31.812Z,20.27
2023-04-25T06:50:01.795Z,18.67
2023-04-25T06:52:32.205Z,14.73
2023-04-25T06:55:02.342Z,17.67
2023-04-25T06:57:43.704Z,19.35
2023-04-25T07:00:35.317Z,18.90
2023-04-25T07:03:03.930Z,18.50
2023-04-25T07:05:32.519Z,16.88
2023-04-25T07:08:01.495Z,18.98
2023-04-25T07:10:32.308Z,15.73
2023-04-25T07:13:00.781Z,15.40
2023-04-25T07:15:29.192Z,17.73
2023-04-25T07:17:58.664Z,14.73
2023-04-25T07:20:28.604Z,14.10
2023-04-25T07:22:58.615Z,12.90
2023-04-25T07:25:27.348Z,15.63
2023-04-25T07:27:59.593Z,22.80
2023-04-25T07:30:28.835Z,19.17
2023-04-25T07:32:57.573Z,15.95
2023-04-25T07:35:26.748Z,15.73
2023-04-25T07:37:55.092Z,15.98
2023-04-25T07:40:23.582Z,22.50
2023-04-25T07:42:56.885Z,21.48
2023-04-25T07:45:34.818Z,18.95
2023-04-25T07:48:04.607Z,19.40
2023-04-25T07:50:35.381Z,22.92
2023-04-25T07:53:04.110Z,18.17
2023-04-25T07:55:40.950Z,21.42
2023-04-25T07:58:16.280Z,18.73
2023-04-25T08:00:48.649Z,24.90
2023-04-25T08:03:40.167Z,19.85
2023-04-25T08:06:15.748Z,20.73
2023-04-25T08:08:56.216Z,28.80
2023-04-25T08:11:29.917Z,38.60
2023-04-25T08:13:58.645Z,27.63
2023-04-25T08:16:29.903Z,23.85
2023-04-25T08:18:59.201Z,30.98
2023-04-25T08:21:27.902Z,29.45
2023-04-25T08:23:59.515Z,33.05
2023-04-25T08:26:31.680Z,23.15
2023-04-25T08:29:00.194Z,27.90
2023-04-25T08:31:30.147Z,23.10
2023-04-25T08:34:01.937Z,34.83
2023-04-25T08:36:51.667Z,22.40
2023-04-25T08:39:35.528Z,30.77
2023-04-25T08:42:36.959Z,22.90
2023-04-25T08:45:07.445Z,27.55
2023-04-25T08:47:42.470Z,24.20
2023-04-25T08:50:11.170Z,23.58
2023-04-25T08:52:42.700Z,29.88
2023-04-25T08:55:12.584Z,35.60
2023-04-25T08:57:43.742Z,27.20
2023-04-25T09:00:12.856Z,25.17
2023-04-25T09:02:45.735Z,24.30
2023-04-25T09:05:15.575Z,33.10
2023-04-25T09:07:45.007Z,20.85
2023-04-25T09:10:13.785Z,23.17
2023-04-25T09:12:43.014Z,24.00
2023-04-25T09:15:12.422Z,25.60
2023-04-25T09:18:05.820Z,21.73
2023-04-25T09:21:00.749Z,23.65
2023-04-25T09:23:31.066Z,22.27
2023-04-25T09:25:59.993Z,20.13
2023-04-25T09:28:30.877Z,23.58
2023-04-25T09:31:01.375Z,22.83
2023-04-25T09:33:38.022Z,20.70
2023-04-25T09:36:09.151Z,25.95
2023-04-25T09:39:17.131Z,22.13
2023-04-25T09:41:56.736Z,18.85
2023-04-25T09:44:26.215Z,21.77
2023-04-25T09:46:56.301Z,18.45
2023-04-25T09:49:30.649Z,16.50
2023-04-25T09:52:12.106Z,16.60
2023-04-25T09:54:52.008Z,20.88
2023-04-25T09:57:27.661Z,11.70
2023-04-25T09:59:58.747Z,15.00
2023-04-25T10:02:32.810Z,18.23
2023-04-25T10:05:11.319Z,17.25
2023-04-25T10:07:42.695Z,13.43
2023-04-25T10:10:16.235Z,21.70
2023-04-25T10:12:47.137Z,13.63
2023-04-25T10:15:16.720Z,16.55
2023-04-25T10:17:45.849Z,17.52
2023-04-25T10:20:16.091Z,14.43
2023-04-25T10:22:45.188Z,14.07
2023-04-25T10:25:13.887Z,17.88
2023-04-25T10:27:42.431Z,13.40
2023-04-25T10:30:13.506Z,18.83
2023-04-25T10:32:42.016Z,17.98
2023-04-25T10:35:14.048Z,15.27
2023-04-25T10:37:59.434Z,16.63
2023-04-25T10:40:27.990Z,20.70
2023-04-25T10:42:57.018Z,18.08
2023-04-25T10:45:25.996Z,17.50
2023-04-25T10:47:54.658Z,18.88
2023-04-25T10:50:23.653Z,17.15
2023-04-25T10:52:52.016Z,17.10
2023-04-25T10:55:22.866Z,19.98
2023-04-25T10:57:52.209Z,18.60
2023-04-25T11:00:25.853Z,17.75
2023-04-25T11:03:00.152Z,20.88
2023-04-25T11:05:33.079Z,12.98
2023-04-25T11:10:54.105Z,19.02
2023-04-25T11:13:23.470Z,21.45
2023-04-25T11:14:38.046Z,18.90
2023-04-25T11:16:03.217Z,16.77
2023-04-25T11:18:41.028Z,16.88
2023-04-25T11:21:09.524Z,18.25
2023-04-25T11:23:37.965Z,17.33
2023-04-25T11:26:08.376Z,18.10
2023-04-25T11:28:36.793Z,14.18
2023-04-25T11:31:05.629Z,16.77
2023-04-25T11:33:36.701Z,18.85
2023-04-25T11:36:05.163Z,19.50
2023-04-25T11:38:33.675Z,11.10
2023-04-25T11:41:02.657Z,11.45
2023-04-25T11:43:32.948Z,14.23
2023-04-25T11:46:02.344Z,15.70
2023-04-25T11:48:32.108Z,9.48
2023-04-25T11:51:03.940Z,9.45
2023-04-25T11:53:32.277Z,24.70
2023-04-25T11:56:02.460Z,14.80
2023-04-25T11:58:32.457Z,12.75
2023-04-25T12:01:04.104Z,13.57
2023-04-25T12:03:34.520Z,15.45
2023-04-25T12:06:06.553Z,8.73
2023-04-25T12:08:35.133Z,18.65
2023-04-25T12:11:03.830Z,15.93
2023-04-25T12:13:34.348Z,11.88
2023-04-25T12:16:03.358Z,13.38
2023-04-25T12:18:31.948Z,14.52
2023-04-25T12:21:01.064Z,13.65
2023-04-25T12:23:29.978Z,13.73
2023-04-25T12:25:58.713Z,14.73
2023-04-25T12:28:28.965Z,12.05
2023-04-25T12:30:59.987Z,17.38
2023-04-25T12:33:29.893Z,12.60
2023-04-25T12:35:59.470Z,17.33
2023-04-25T12:38:28.513Z,9.55
2023-04-25T12:40:57.500Z,15.45
2023-04-25T12:43:25.999Z,17.90
2023-04-25T12:45:55.227Z,14.90
2023-04-25T12:48:25.458Z,12.73
2023-04-25T12:50:54.655Z,13.75
2023-04-25T12:53:24.742Z,6.65
2023-04-25T12:55:53.266Z,12.52
2023-04-25T12:58:21.975Z,11.10
2023-04-25T13:00:50.857Z,17.80
2023-04-25T13:03:19.841Z,12.38
2023-04-25T13:05:51.413Z,15.27
2023-04-25T13:08:19.866Z,14.00
2023-04-25T13:10:48.400Z,11.07
2023-04-25T13:13:17.848Z,10.10
2023-04-25T13:15:47.147Z,12.27
2023-04-25T13:18:15.647Z,6.38
2023-04-25T13:20:44.141Z,7.70
2023-04-25T13:23:13.890Z,9.82
2023-04-25T13:25:44.423Z,8.07
2023-04-25T13:28:12.509Z,14.57
2023-04-25T13:30:40.574Z,10.35
2023-04-25T13:33:08.706Z,11.85
2023-04-25T13:35:37.888Z,11.38
2023-04-25T13:38:06.561Z,7.88
2023-04-25T13:40:36.024Z,11.23
2023-04-25T13:43:04.328Z,11.20
2023-04-25T13:45:33.570Z,10.15
2023-04-25T13:48:02.650Z,14.93
2023-04-25T13:50:31.147Z,12.30
2023-04-25T13:52:59.286Z,13.30
2023-04-25T13:55:31.013Z,11.32
2023-04-25T13:58:00.623Z,10.48
2023-04-25T14:00:28.776Z,15.75
2023-04-25T14:02:56.992Z,12.52
2023-04-25T14:05:25.353Z,11.45
2023-04-25T14:07:53.399Z,10.52
2023-04-25T14:10:21.661Z,14.73
2023-04-25T14:12:49.766Z,11.88
2023-04-25T14:15:19.239Z,16.25
2023-04-25T14:17:49.346Z,12.27
2023-04-25T14:20:21.212Z,12.82
2023-04-25T14:22:53.081Z,16.75
2023-04-25T14:25:21.215Z,10.27
2023-04-25T14:27:50.863Z,12.57
2023-04-25T14:30:21.336Z,10.38
2023-04-25T14:32:50.929Z,11.07
2023-04-25T14:35:19.601Z,11.23
2023-04-25T14:37:47.887Z,12.82
2023-04-25T14:40:17.915Z,15.25
2023-04-25T14:42:46.245Z,13.35
2023-04-25T14:45:14.356Z,11.70
2023-04-25T14:47:43.956Z,8.07
2023-04-25T14:50:12.802Z,9.57
2023-04-25T14:52:41.158Z,12.02
2023-04-25T14:55:10.268Z,13.95
2023-04-25T14:57:40.138Z,12.45
2023-04-25T15:00:10.297Z,13.52
2023-04-25T15:02:38.953Z,15.02
2023-04-25T15:05:09.674Z,14.25
2023-04-25T15:07:40.393Z,17.42
2023-04-25T15:10:14.383Z,14.27
2023-04-25T15:12:42.620Z,12.65
2023-04-25T15:15:14.242Z,14.25
2023-04-25T15:17:46.569Z,19.92
2023-04-25T15:20:16.174Z,16.13
2023-04-25T15:22:45.873Z,8.20
2023-04-25T15:25:14.068Z,8.35
2023-04-25T15:27:45.982Z,12.73
2023-04-25T15:30:16.358Z,7.70
2023-04-25T15:32:45.008Z,11.48
2023-04-25T15:35:15.661Z,8.38
2023-04-25T15:37:44.076Z,15.35
2023-04-25T15:40:14.109Z,9.82
2023-04-25T15:42:44.472Z,16.20
2023-04-25T15:45:13.599Z,10.02
2023-04-25T15:47:43.020Z,9.32
2023-04-25T15:50:11.837Z,8.88
2023-04-25T15:52:42.121Z,8.38
2023-04-25T15:55:12.872Z,7.18
2023-04-25T15:57:42.031Z,6.75
2023-04-25T16:00:13.089Z,8.70
2023-04-25T16:02:42.928Z,9.70
2023-04-25T16:05:13.132Z,7.25
2023-04-25T16:07:44.913Z,10.85
2023-04-25T16:10:13.736Z,8.05
2023-04-25T16:12:44.083Z,10.98
2023-04-25T16:15:12.621Z,15.10
2023-04-25T16:17:41.487Z,9.88
2023-04-25T16:20:13.512Z,12.20
2023-04-25T16:22:45.406Z,11.13
2023-04-25T16:25:13.626Z,8.35
2023-04-25T16:27:41.838Z,10.38
2023-04-25T16:30:11.705Z,9.30
2023-04-25T16:32:41.802Z,8.30
2023-04-25T16:35:12.239Z,6.55
2023-04-25T16:37:40.590Z,9.82
2023-04-25T16:40:10.829Z,9.52
2023-04-25T16:42:38.940Z,11.23
2023-04-25T16:45:10.953Z,7.68
2023-04-25T16:47:39.049Z,10.63
2023-04-25T16:50:08.491Z,13.43
2023-04-25T16:52:36.715Z,16.75
2023-04-25T16:55:05.218Z,12.73
2023-04-25T16:57:36.416Z,12.20
2023-04-25T17:00:05.537Z,9.43
2023-04-25T17:02:33.804Z,7.25
2023-04-25T17:05:02.031Z,9.40
2023-04-25T17:07:33.682Z,10.52
2023-04-25T17:10:01.856Z,10.55
2023-04-25T17:12:30.669Z,12.45
2023-04-25T17:15:01.255Z,9.70
2023-04-25T17:17:29.593Z,11.65
2023-04-25T17:19:57.846Z,22.60
2023-04-25T17:22:26.464Z,15.20
2023-04-25T17:24:54.803Z,15.23
2023-04-25T17:27:23.065Z,13.32
2023-04-25T17:29:51.208Z,15.88
2023-04-25T17:32:23.288Z,11.05
2023-04-25T17:34:51.894Z,13.48
2023-04-25T17:37:20.119Z,17.90
2023-04-25T17:39:48.289Z,14.18
2023-04-25T17:42:16.507Z,15.68
2023-04-25T17:44:44.580Z,15.55
2023-04-25T17:47:12.797Z,10.65
2023-04-25T17:49:42.673Z,16.95
2023-04-25T17:52:10.906Z,14.63
2023-04-25T17:54:39.068Z,14.27
2023-04-25T17:57:09.516Z,17.08
2023-04-25T17:59:37.623Z,15.25
2023-04-25T18:02:05.895Z,18.15
2023-04-25T18:04:35.368Z,13.88
2023-04-25T18:07:05.818Z,15.55
2023-04-25T18:09:34.280Z,24.77
2023-04-25T18:12:03.616Z,25.27
2023-04-25T18:14:33.780Z,14.48
2023-04-25T18:17:01.969Z,17.13
2023-04-25T18:19:30.074Z,15.73
2023-04-25T18:21:58.652Z,16.83
2023-04-25T18:24:28.374Z,14.52
2023-04-25T18:27:00.620Z,10.38
2023-04-25T18:29:33.480Z,10.85
2023-04-25T18:32:02.407Z,10.05
2023-04-25T18:34:30.578Z,9.30
2023-04-25T18:36:59.656Z,11.57
2023-04-25T18:39:29.255Z,7.78
2023-04-25T18:42:01.460Z,12.43
2023-04-25T18:44:39.269Z,16.25
2023-04-25T18:47:07.703Z,13.13
2023-04-25T18:49:35.898Z,15.23
2023-04-25T18:52:04.130Z,12.60
2023-04-25T18:54:33.624Z,15.50
2023-04-25T18:57:01.696Z,19.65
2023-04-25T18:59:29.867Z,24.10
2023-04-25T19:01:58.189Z,22.05
2023-04-25T19:04:26.376Z,24.85
2023-04-25T19:06:54.604Z,22.42
2023-04-25T19:09:23.282Z,22.15
2023-04-25T19:11:55.247Z,18.33
2023-04-25T19:14:23.418Z,13.15
2023-04-25T19:16:51.634Z,11.80
2023-04-25T19:19:19.756Z,12.90
2023-04-25T19:21:50.314Z,12.75
2023-04-25T19:24:18.648Z,18.50
2023-04-25T19:26:46.813Z,16.13
2023-04-25T19:29:18.338Z,22.25
2023-04-25T19:31:46.910Z,12.30
2023-04-25T19:34:15.431Z,11.70
2023-04-25T19:36:44.137Z,9.77
2023-04-25T19:39:12.284Z,12.18
2023-04-25T19:41:40.534Z,13.70
2023-04-25T19:44:10.045Z,17.15
2023-04-25T19:46:39.984Z,9.48
2023-04-25T19:49:08.483Z,9.77
2023-04-25T19:51:37.572Z,7.07
2023-04-25T19:54:06.016Z,11.18
2023-04-25T19:56:34.210Z,12.15
2023-04-25T19:59:02.367Z,8.18
2023-04-25T20:01:30.721Z,12.35
2023-04-25T20:04:00.407Z,17.83
2023-04-25T20:06:30.402Z,11.63
2023-04-25T20:08:59.222Z,17.25
2023-04-25T20:11:29.035Z,13.75
2023-04-25T20:13:57.368Z,21.35
2023-04-25T20:16:25.969Z,15.30
2023-04-25T20:18:54.690Z,12.30
2023-04-25T20:21:24.666Z,13.80
2023-04-25T20:23:54.847Z,18.08
2023-04-25T20:26:25.766Z,14.40
2023-04-25T20:28:56.327Z,18.25
2023-04-25T20:31:24.684Z,14.77
2023-04-25T20:33:53.233Z,13.43
2023-04-25T20:36:21.464Z,17.23
2023-04-25T20:38:51.140Z,19.05
2023-04-25T20:41:20.039Z,22.35
2023-04-25T20:43:49.994Z,18.75
2023-04-25T20:46:18.195Z,14.07
2023-04-25T20:48:46.425Z,19.73
2023-04-25T20:51:14.547Z,14.25
2023-04-25T20:53:42.933Z,16.85
2023-04-25T20:56:12.876Z,16.48
2023-04-25T20:58:41.167Z,10.30
2023-04-25T21:01:09.878Z,19.38
2023-04-25T21:03:38.252Z,27.13
2023-04-25T21:06:07.478Z,18.02
2023-04-25T21:08:36.279Z,14.85
2023-04-25T21:11:04.400Z,22.52
2023-04-25T21:13:33.920Z,12.35
2023-04-25T21:16:02.949Z,10.82
2023-04-25T21:18:31.901Z,12.93
2023-04-25T21:21:01.199Z,14.32
2023-04-25T21:23:29.503Z,10.82
2023-04-25T21:25:57.651Z,16.60
2023-04-25T21:28:25.995Z,18.20
2023-04-25T21:30:55.585Z,9.75
2023-04-25T21:33:26.722Z,13.35
2023-04-25T21:35:54.796Z,12.02
2023-04-25T21:38:22.866Z,15.88
2023-04-25T21:40:51.216Z,16.08
2023-04-25T21:43:19.282Z,12.18
2023-04-25T21:46:14.591Z,16.40
2023-04-25T21:48:36.994Z,13.57
2023-04-25T21:51:05.735Z,10.82
2023-04-25T21:53:34.025Z,21.40
2023-04-25T21:56:02.510Z,19.70
2023-04-25T21:58:30.695Z,11.13
2023-04-25T22:00:59.832Z,13.32
2023-04-25T22:03:28.103Z,10.82
2023-04-25T22:05:57.718Z,16.85
2023-04-25T22:08:27.923Z,10.00
2023-04-25T22:10:58.927Z,12.52
2023-04-25T22:13:28.458Z,14.43
2023-04-25T22:15:59.246Z,12.33
2023-04-25T22:18:27.639Z,14.45
2023-04-25T22:20:57.196Z,15.80
2023-04-25T22:23:25.523Z,11.95
2023-04-25T22:25:53.707Z,9.70
2023-04-25T22:28:22.710Z,12.00
2023-04-25T22:30:51.048Z,11.15
2023-04-25T22:33:19.148Z,11.88
2023-04-25T22:35:47.238Z,12.23
2023-04-25T22:38:16.676Z,12.90
2023-04-25T22:40:47.790Z,10.75
2023-04-25T22:43:15.919Z,15.95
2023-04-25T22:45:44.119Z,11.93
2023-04-25T22:48:12.419Z,18.38
2023-04-25T22:50:40.800Z,12.98
2023-04-25T22:53:10.399Z,13.27
2023-04-25T22:55:40.234Z,14.40
2023-04-25T22:58:09.411Z,8.73
2023-04-25T23:00:38.055Z,11.77
2023-04-25T23:03:06.824Z,20.30
2023-04-25T23:05:35.078Z,17.00
2023-04-25T23:08:03.520Z,13.77
2023-04-25T23:10:31.795Z,12.88
2023-04-25T23:13:01.584Z,8.55
2023-04-25T23:15:31.313Z,14.38
2023-04-25T23:17:59.731Z,14.50
2023-04-25T23:20:28.157Z,13.63
2023-04-25T23:22:56.580Z,11.82
2023-04-25T23:25:24.944Z,17.83
2023-04-25T23:27:53.129Z,17.90
2023-04-25T23:30:22.783Z,15.40
2023-04-25T23:32:51.376Z,13.38
2023-04-25T23:35:19.621Z,16.02
2023-04-25T23:37:49.150Z,12.32
2023-04-25T23:40:17.276Z,17.17
2023-04-25T23:42:45.388Z,13.82
2023-04-25T23:45:15.794Z,13.02
2023-04-25T23:47:45.416Z,11.43
2023-04-25T23:50:13.832Z,14.63
2023-04-25T23:52:42.108Z,15.85
2023-04-25T23:55:10.721Z,17.80
2023-04-25T23:57:38.916Z,16.08
